Central Gulf Of Alaska - 265nm West Of Cape Ommaney, Akk (46085) Wave Buoy

6:50am - Tue 13th Oct 2015 All times are UTC.

  • Sig Wave height 13.8ft
  • Peak Period 11s
  • Average Period 7s
  • Wind
    22mph, 29mph gusts
  • Sea Temp 53°f
  • Air Temp 48°f
  • Sea Pressure 1000.7mb

More Historic Weather Station data

Upgrade to MSW Pro to gain access to the past 30 days of data for over 8000 Wavebouys and Weather Stations around the globe.

Join Pro

Comparision Forecast

View Surf forecast
Tue 10/13 6:50am 14ft 11s 7s 22 29 mph 1000.7mb 53f 48f
5:50am 15ft 11s 8s 16 22 mph 1000.7mb 53f 47f
4:50am 15.5ft 10s 8s 20 25 mph 1000.5mb 53f 49f
3:50am 16.5ft 11s 8s 25 29 mph 1000.1mb 53f 51f
2:50am 15.5ft 12s 8s 27 36 mph 999.6mb 53f 50f
1:50am 15ft 12s 8s 27 34 mph 999.3mb 53f 50f
12:50am 15ft 12s 8s 22 27 mph 998.8mb 53f 50f
Mon 10/12 11:50pm 15ft 12s 7s 22 29 mph 997.9mb 53f 50f
10:50pm 13.5ft 13s 7s 29 34 mph 997mb 53f 49f
9:50pm 13ft 11s 7s 27 34 mph 995.6mb 53f 49f
8:50pm 11ft 11s 7s 25 34 mph 994.3mb 53f 51f
7:50pm 12ft 12s 7s 27 31 mph 993mb 53f 51f
6:50pm 13ft 12s 7s 22 29 mph 991.7mb 53f 50f
5:50pm 13.5ft 12s 7s 25 29 mph 990.3mb 53f 51f
4:50pm 14.5ft 13s 8s 27 31 mph 988.7mb 53f 51f
3:50pm 15.5ft 11s 8s 25 29 mph 987.5mb 53f 51f
2:50pm 15ft 11s 8s 25 29 mph 986.4mb 53f 51f
1:50pm 15ft 11s 7s 22 29 mph 985.4mb 53f 50f
12:50pm 13.5ft 11s 7s 20 27 mph 984.6mb 53f 49f
11:50am 15ft 11s 7s 27 34 mph 983.4mb 53f 51f
10:50am 16.5ft 12s 7s 29 38 mph 982.3mb 53f 51f
9:50am 14.5ft 12s 7s 34 40 mph 981.2mb 53f 50f
8:50am 15ft 11s 7s 34 43 mph 980.2mb 53f 50f
7:50am 14.5ft 14s 7s 34 40 mph 979.2mb 53f 50f
6:50am 13.5ft 12s 7s 34 45 mph 977.6mb 53f 50f
5:50am 14ft 11s 9s 20 25 mph 976.4mb 53f 51f
4:50am 14ft 14s 9s 16 18 mph 975.1mb 53f 51f
3:50am 14.5ft 14s 9s 16 20 mph 973.8mb 53f 51f
2:50am 16ft 13s 9s 18 25 mph 972.2mb 53f 51f
1:50am 17ft 10s 9s 11 18 mph 971.1mb 53f 51f
12:50am 18ft 14s 9s 9 16 mph 970.4mb 53f 51f
Sun 10/11 11:50pm 17.5ft 15s 9s 9 11 mph 969.6mb 53f 52f
10:50pm 15.5ft 9s 8s 9 11 mph 969.3mb 53f 53f
9:50pm 14ft 9s 7s 16 20 mph 969.1mb 53f 53f
8:50pm 14.5ft 8s 7s 18 22 mph 969.1mb 53f 52f
7:50pm 13ft 8s 6s 34 45 mph 970.8mb 53f 51f
6:50pm 12ft 7s 6s 36 47 mph 973.4mb 53f 51f
5:50pm 10ft 6s 6s 36 45 mph 976mb 53f 51f
4:50pm 10ft 11s 6s 34 43 mph 978.8mb 53f 52f
3:50pm 10ft 12s 6s 29 38 mph 981.5mb 53f 52f
2:50pm 12ft 12s 7s 27 34 mph 984mb 53f 53f
1:50pm 11.5ft 13s 7s 25 31 mph 985.9mb 53f 52f
12:50pm 10ft 11s 7s 22 29 mph 987.3mb 53f 52f
11:50am 10ft 14s 7s 22 27 mph 988.8mb 53f 52f
10:50am 11ft 13s 8s 18 22 mph 989.6mb 53f 52f
9:50am 11ft 13s 8s 18 22 mph 990.6mb 53f 52f
8:50am 12.5ft 14s 8s 16 20 mph 991.3mb 53f 52f
7:50am 11ft 14s 8s 16 20 mph 991.2mb 53f 52f
6:50am 13ft 14s 8s 16 20 mph 991.4mb 53f 52f
5:50am 13ft 15s 8s 16 20 mph 990.9mb 53f 52f
4:50am 12ft 15s 8s 18 22 mph 990.8mb 53f 53f
3:50am 12.5ft 15s 8s 18 22 mph 990.3mb 53f 52f
2:50am 11.5ft 12s 7s 20 25 mph 989.7mb 53f 53f
1:50am 10ft 12s 6s 20 25 mph 989.2mb 53f 53f
12:50am 9ft 11s 6s 20 25 mph 989.1mb 53f 52f
Sat 10/10 11:50pm 9.5ft 11s 6s 22 25 mph 988.6mb 53f 53f
10:50pm 9.5ft 11s 7s 20 27 mph 988.2mb 53f 53f
9:50pm 9ft 12s 7s 22 25 mph 987.9mb 53f 53f
8:50pm 9ft 11s 6s 20 25 mph 987.5mb 53f 53f
7:50pm 9ft 11s 7s 20 22 mph 987.1mb 53f 53f
6:50pm 9ft 12s 7s 18 22 mph 986.7mb 53f 53f
5:50pm 9.5ft 12s 7s 16 18 mph 986.3mb 53f 53f
4:50pm 9ft 11s 6s 16 18 mph 986mb 53f 52f
3:50pm 9ft 12s 6s 22 25 mph 985.6mb 53f 52f
2:50pm 9ft 12s 6s 20 25 mph 985.6mb 53f 53f
1:50pm 8.5ft 12s 6s 18 25 mph 985.7mb 53f 53f
12:50pm 9ft 11s 7s 20 25 mph 985.7mb 53f 53f
11:50am 8.5ft 11s 6s 20 25 mph 985.4mb 53f 53f
10:50am 9.5ft 12s 6s 18 22 mph 985.1mb 53f 52f
9:50am 9ft 12s 7s 20 25 mph 984.4mb 53f 52f
8:50am 9ft 11s 7s 22 27 mph 983.6mb 53f 52f
7:50am 10ft 13s 7s 18 20 mph 982.8mb 53f 50f
6:50am 9ft 11s 7s 20 25 mph 982.1mb 53f 51f
5:50am 10.5ft 12s 7s 20 22 mph 981.3mb 53f 50f
4:50am 9.5ft 8s 7s 18 22 mph 980.1mb 53f 51f
3:50am 9ft 8s 6s 16 18 mph 979.2mb 53f 51f
2:50am 7ft 9s 6s 13 18 mph 978.3mb 53f 52f
1:50am 7ft 9s 6s 16 18 mph 977.6mb 53f 51f
12:50am 6.5ft 9s 5s 13 16 mph 976.9mb 53f 51f
Fri 10/09 11:50pm 6ft 7s 5s 18 22 mph 976.1mb 53f 52f
10:50pm 7ft 9s 5s 20 22 mph 975.3mb 53f 52f
9:50pm 7ft 9s 6s 25 29 mph 974.5mb 53f 52f
8:50pm 7ft 10s 6s 25 29 mph 975.1mb 53f 51f
7:50pm 6.5ft 9s 6s 22 29 mph 975.3mb 53f 51f
6:50pm 7ft 10s 6s 20 25 mph 975.8mb 53f 51f
5:50pm 7ft 11s 6s 18 20 mph 976.7mb 53f 51f
4:50pm 8ft 8s 7s 16 18 mph 977.6mb 53f 52f
3:50pm 7.5ft 10s 7s 16 20 mph 979.1mb 53f 52f
2:50pm 7.5ft 10s 7s 13 16 mph 981.1mb 53f 52f
1:50pm 8ft 10s 7s 13 16 mph 982.6mb 53f 51f
12:50pm 9ft 9s 7s 13 20 mph 984.2mb 53f 51f
11:50am 11ft 10s 7s 11 13 mph 986.3mb 53f 51f
10:50am 11ft 11s 7s 9 13 mph 987.7mb 53f 52f
9:50am 10ft 10s 7s 7 11 mph 989.2mb 53f 52f
8:50am 10ft 11s 8s 13 16 mph 990.5mb 53f 52f
7:50am 11.5ft 11s 8s 11 13 mph 991.3mb 53f 53f